Time;durP1;ratioP1;P1;durP2;ratioP2;P2;SDS_P1;SDS_P2;PMS_P1;PMS_P2;Temp;Humidity;BMP_temperature;BMP_pressure;BME280_temperature;BME280_humidity;BME280_pressure;Samples;Min_cycle;Max_cycle;Signal;HPM_P1;HPM_P2
2022/12/21 00:01:40;;;;;;;75.60;29.10;;;;;;;1.28;83.44;100301.52;103129;1301;25340;-61
2022/12/21 00:04:12;;;;;;;72.40;29.20;;;;;;;1.25;83.19;100307.60;103152;1278;22649;-60
2022/12/21 00:06:44;;;;;;;71.90;29.00;;;;;;;1.24;83.23;100313.98;103115;1306;22493;-59
2022/12/21 00:09:17;;;;;;;73.50;31.00;;;;;;;1.20;83.13;100316.70;103125;1274;22462;-59
2022/12/21 00:11:49;;;;;;;73.10;31.20;;;;;;;1.17;83.37;100298.45;103187;1282;22545;-59
2022/12/21 00:14:20;;;;;;;80.10;31.40;;;;;;;1.16;83.24;100301.29;103094;1298;22568;-60
2022/12/21 00:16:51;;;;;;;65.50;29.30;;;;;;;1.14;83.41;100304.94;103099;1282;22469;-59
2022/12/21 00:19:23;;;;;;;71.80;27.30;;;;;;;1.14;83.45;100301.17;103088;1282;22568;-58
2022/12/21 00:21:54;;;;;;;65.50;26.40;;;;;;;1.10;83.42;100308.20;103125;1291;25385;-60
2022/12/21 00:24:27;;;;;;;60.60;22.80;;;;;;;1.10;83.59;100316.84;103200;1275;25304;-58
2022/12/21 00:27:00;;;;;;;59.60;22.60;;;;;;;1.12;83.61;100307.85;103056;1282;22480;-59
2022/12/21 00:29:31;;;;;;;54.50;20.90;;;;;;;1.11;83.31;100295.39;102918;1282;25390;-60
2022/12/21 00:32:02;;;;;;;55.80;21.70;;;;;;;1.10;83.35;100282.83;103147;1306;24497;-60
2022/12/21 00:34:33;;;;;;;54.40;18.90;;;;;;;1.09;83.39;100283.63;103072;1282;22474;-59
2022/12/21 00:37:05;;;;;;;48.40;17.40;;;;;;;1.08;83.38;100285.84;103099;1298;22471;-60
2022/12/21 00:39:36;;;;;;;46.00;17.10;;;;;;;1.08;83.42;100291.18;103162;1306;22575;-58
2022/12/21 00:42:14;;;;;;;47.50;17.70;;;;;;;1.09;83.58;100290.31;103253;1278;25309;-57
2022/12/21 00:44:45;;;;;;;43.00;15.40;;;;;;;1.10;83.62;100275.91;103100;1305;22475;-60
2022/12/21 00:47:18;;;;;;;40.70;15.30;;;;;;;1.11;83.55;100267.58;103135;1282;22507;-59
2022/12/21 00:49:49;;;;;;;47.20;16.60;;;;;;;1.09;83.57;100269.71;103041;1282;22473;-59
2022/12/21 00:52:20;;;;;;;46.40;17.50;;;;;;;1.11;83.75;100275.04;102135;1274;1394065;-59
2022/12/21 00:54:52;;;;;;;51.60;19.20;;;;;;;1.13;83.68;100278.00;103228;1306;22768;-59
2022/12/21 00:57:23;;;;;;;51.80;18.40;;;;;;;1.15;83.67;100281.42;103035;1274;22489;-59
2022/12/21 00:59:54;;;;;;;47.80;19.40;;;;;;;1.15;83.52;100285.83;103144;1305;23219;-60
2022/12/21 01:02:26;;;;;;;52.00;19.10;;;;;;;1.13;83.46;100284.76;103119;1282;22659;-61
2022/12/21 01:04:57;;;;;;;47.20;18.60;;;;;;;1.13;83.64;100288.36;103151;1282;22495;-59
2022/12/21 01:07:28;;;;;;;47.20;18.10;;;;;;;1.13;83.64;100292.60;103024;1306;25350;-59
2022/12/21 01:10:00;;;;;;;48.20;16.90;;;;;;;1.16;83.74;100302.23;103256;1306;24336;-61
2022/12/21 01:12:31;;;;;;;50.80;21.20;;;;;;;1.18;83.64;100316.36;103065;1282;23246;-58
2022/12/21 01:15:02;;;;;;;43.60;16.10;;;;;;;1.18;83.56;100320.59;103262;1275;22517;-58
2022/12/21 01:17:34;;;;;;;44.40;16.50;;;;;;;1.18;83.65;100315.00;103058;1284;25788;-59
2022/12/21 01:20:09;;;;;;;46.50;17.80;;;;;;;1.19;83.84;100288.44;103147;1282;22478;-60
2022/12/21 01:22:40;;;;;;;53.60;19.10;;;;;;;1.17;83.73;100273.77;103115;1304;22472;-58
2022/12/21 01:25:12;;;;;;;38.80;15.40;;;;;;;1.15;83.44;100288.73;103144;1284;22625;-59
2022/12/21 01:27:43;;;;;;;44.70;16.60;;;;;;;1.13;83.47;100297.17;103062;1306;22539;-59
2022/12/21 01:30:15;;;;;;;47.50;16.80;;;;;;;1.14;83.69;100283.03;103056;1282;22588;-59
2022/12/21 01:32:47;;;;;;;44.40;16.50;;;;;;;1.12;83.60;100282.02;103138;1305;25223;-59
2022/12/21 01:35:18;;;;;;;46.00;17.00;;;;;;;1.11;83.59;100282.27;103035;1305;22470;-57
2022/12/21 01:37:49;;;;;;;44.00;16.30;;;;;;;1.12;83.78;100275.58;103161;1306;22577;-58
2022/12/21 01:40:21;;;;;;;43.80;17.10;;;;;;;1.12;83.73;100273.14;103085;1297;22633;-59
2022/12/21 01:42:55;;;;;;;50.20;18.00;;;;;;;1.13;83.76;100261.28;103106;1305;22975;-59
2022/12/21 01:45:30;;;;;;;47.30;16.80;;;;;;;1.13;83.87;100256.08;103327;1292;22590;-58
2022/12/21 01:48:04;;;;;;;53.40;19.20;;;;;;;1.12;83.69;100250.98;103059;1306;22519;-58
2022/12/21 01:50:45;;;;;;;56.80;20.70;;;;;;;1.11;83.71;100240.88;103015;1305;24555;-59
2022/12/21 01:53:21;;;;;;;51.20;19.00;;;;;;;1.09;83.69;100245.38;103084;1282;24417;-61
2022/12/21 01:55:55;;;;;;;53.00;19.60;;;;;;;1.09;83.81;100249.61;103258;1305;24344;-57
2022/12/21 01:58:28;;;;;;;55.30;19.30;;;;;;;1.08;83.73;100244.92;103229;1281;27144;-60
2022/12/21 02:01:02;;;;;;;46.80;16.70;;;;;;;1.07;83.82;100246.04;103158;1300;22474;-59
2022/12/21 02:03:38;;;;;;;48.20;17.60;;;;;;;1.05;83.86;100236.80;103134;1306;22466;-59
2022/12/21 02:06:12;;;;;;;45.80;16.60;;;;;;;1.02;83.82;100231.25;103052;1306;22465;-59
2022/12/21 02:08:43;;;;;;;53.50;18.90;;;;;;;1.01;83.88;100225.55;103091;1281;22951;-58
2022/12/21 02:11:16;;;;;;;48.50;17.90;;;;;;;1.01;84.03;100222.78;103221;1280;25304;-60
2022/12/21 02:13:47;;;;;;;50.90;17.30;;;;;;;1.02;83.96;100224.27;103202;1275;22488;-61
2022/12/21 02:16:27;;;;;;;44.10;18.60;;;;;;;1.02;83.96;100230.41;103102;1274;22466;-58
2022/12/21 02:19:30;;;;;;;45.90;17.80;;;;;;;0.99;83.92;100241.59;103188;1305;25278;-60
2022/12/21 02:22:06;;;;;;;47.80;18.00;;;;;;;1.00;84.10;100237.27;103143;1304;27680;-59
2022/12/21 02:25:04;;;;;;;48.10;17.50;;;;;;;1.01;84.15;100236.29;103164;1298;23217;-59
2022/12/21 02:28:17;;;;;;;51.70;19.00;;;;;;;1.02;84.12;100230.24;103060;1306;22479;-60
2022/12/21 02:31:02;;;;;;;45.60;18.30;;;;;;;1.03;84.20;100244.20;103171;1306;22465;-58
2022/12/21 02:33:46;;;;;;;45.90;17.10;;;;;;;1.03;84.14;100253.00;103228;1291;22467;-59
2022/12/21 02:36:27;;;;;;;42.60;17.10;;;;;;;1.03;84.28;100251.58;103089;1282;22460;-59
2022/12/21 02:39:12;;;;;;;51.20;17.50;;;;;;;1.05;84.35;100248.59;103051;1305;22472;-59
2022/12/21 02:41:54;;;;;;;45.70;17.00;;;;;;;1.07;84.43;100249.80;103061;1303;22455;-59
2022/12/21 02:44:45;;;;;;;51.80;17.60;;;;;;;1.09;84.41;100245.92;103193;1288;25351;-58
2022/12/21 02:47:23;;;;;;;51.30;17.70;;;;;;;1.10;84.44;100244.09;103120;1306;22465;-56
2022/12/21 02:50:02;;;;;;;43.80;15.80;;;;;;;1.13;84.35;100233.54;103059;1298;23221;-58
2022/12/21 02:52:40;;;;;;;50.10;18.60;;;;;;;1.14;84.46;100232.90;103051;1282;22917;-59
2022/12/21 02:55:13;;;;;;;40.50;15.30;;;;;;;1.15;84.37;100243.17;103112;1281;25423;-59
2022/12/21 02:57:45;;;;;;;41.90;16.10;;;;;;;1.16;84.44;100242.36;103085;1306;22470;-59
2022/12/21 03:00:20;;;;;;;46.20;16.70;;;;;;;1.16;84.44;100235.98;103085;1282;25497;-58
2022/12/21 03:06:23;;;;;;;45.30;16.40;;;;;;;1.18;84.52;100233.30;103016;1302;24414;-59
2022/12/21 03:09:10;;;;;;;48.20;16.70;;;;;;;1.18;84.47;100228.91;103051;1306;22584;-58
2022/12/21 03:11:49;;;;;;;44.40;17.10;;;;;;;1.18;84.61;100223.98;103041;1282;24361;-61
2022/12/21 03:14:30;;;;;;;41.30;15.30;;;;;;;1.19;84.66;100211.37;103095;1282;22474;-59
2022/12/21 03:17:13;;;;;;;42.80;15.90;;;;;;;1.18;84.62;100211.60;103060;1281;22471;-59
2022/12/21 03:19:53;;;;;;;41.20;15.20;;;;;;;1.19;84.62;100215.14;103073;1282;25381;-58
2022/12/21 03:22:31;;;;;;;41.40;14.90;;;;;;;1.19;84.67;100209.64;103038;1282;24438;-58
2022/12/21 03:25:10;;;;;;;42.60;15.50;;;;;;;1.20;84.70;100213.55;103192;1306;23212;-58
2022/12/21 03:27:45;;;;;;;44.10;15.10;;;;;;;1.20;84.68;100232.73;103094;1306;25283;-59
2022/12/21 03:30:20;;;;;;;45.60;16.50;;;;;;;1.20;84.59;100242.60;103029;1306;22460;-57
2022/12/21 03:32:57;;;;;;;38.90;13.90;;;;;;;1.21;84.71;100226.96;103196;1288;25230;-60
2022/12/21 03:35:35;;;;;;;41.20;15.20;;;;;;;1.21;84.66;100225.33;103033;1305;22473;-59
2022/12/21 03:38:13;;;;;;;38.60;14.30;;;;;;;1.20;84.69;100231.20;103051;1282;25361;-59
2022/12/21 03:40:47;;;;;;;40.40;14.70;;;;;;;1.20;84.76;100225.09;103078;1284;22907;-58
2022/12/21 03:43:24;;;;;;;44.00;15.80;;;;;;;1.20;84.66;100221.17;103064;1284;23386;-58
2022/12/21 03:45:59;;;;;;;40.10;14.90;;;;;;;1.20;84.75;100216.30;103059;1306;25273;-60
2022/12/21 03:48:37;;;;;;;40.90;15.20;;;;;;;1.19;84.63;100211.54;103180;1288;25253;-57
2022/12/21 03:51:15;;;;;;;42.60;16.60;;;;;;;1.19;84.85;100210.11;103133;1306;22477;-57
2022/12/21 03:53:51;;;;;;;39.90;15.20;;;;;;;1.22;84.92;100200.95;103033;1298;22492;-59
2022/12/21 03:56:29;;;;;;;40.00;15.70;;;;;;;1.25;84.90;100187.95;103228;1303;22472;-59
2022/12/21 03:59:02;;;;;;;44.70;15.50;;;;;;;1.26;84.92;100182.65;103096;1282;22480;-59
2022/12/21 04:01:43;;;;;;;45.20;16.60;;;;;;;1.28;85.12;100176.02;103013;1306;22581;-59
2022/12/21 04:04:24;;;;;;;42.60;15.30;;;;;;;1.31;85.01;100175.97;103108;1281;22582;-59
2022/12/21 04:06:59;;;;;;;42.00;16.00;;;;;;;1.34;85.13;100178.98;103098;1306;22465;-59
2022/12/21 04:09:30;;;;;;;44.60;17.50;;;;;;;1.36;85.04;100188.30;103263;1281;22463;-60
2022/12/21 04:14:50;;;;;;;44.60;16.00;;;;;;;1.37;85.05;100189.23;103011;1282;24347;-61
2022/12/21 04:17:22;;;;;;;48.90;16.30;;;;;;;1.39;85.12;100184.41;103187;1306;22465;-59
2022/12/21 04:19:59;;;;;;;46.50;18.30;;;;;;;1.38;85.19;100180.96;103198;1281;24420;-59
2022/12/21 04:28:19;;;;;;;49.60;16.00;;;;;;;1.40;85.36;100190.91;103018;1292;22477;-58
2022/12/21 04:30:51;;;;;;;47.70;17.70;;;;;;;1.42;85.36;100201.33;103200;1302;22457;-59
2022/12/21 04:33:24;;;;;;;42.50;16.10;;;;;;;1.45;85.54;100194.42;103201;1282;24337;-60
2022/12/21 04:38:46;;;;;;;47.60;16.60;;;;;;;1.50;85.66;100194.52;103046;1281;22464;-58
2022/12/21 04:41:18;;;;;;;46.60;17.80;;;;;;;1.53;85.84;100192.51;103130;1304;22473;-60
2022/12/21 04:43:49;;;;;;;44.60;17.20;;;;;;;1.53;85.84;100201.79;103097;1298;24804;-58
2022/12/21 04:46:21;;;;;;;42.60;17.10;;;;;;;1.53;85.96;100200.45;103106;1306;24444;-59
2022/12/21 04:48:53;;;;;;;44.50;17.70;;;;;;;1.54;86.13;100187.38;103147;1306;25368;-59
2022/12/21 04:51:26;;;;;;;44.40;16.40;;;;;;;1.55;86.24;100178.80;103015;1289;24492;-58
2022/12/21 04:53:58;;;;;;;48.30;19.00;;;;;;;1.56;86.38;100163.99;103050;1303;22484;-60
2022/12/21 04:56:30;;;;;;;43.30;16.80;;;;;;;1.57;86.50;100153.30;103171;1278;22472;-59
2022/12/21 04:59:01;;;;;;;45.90;16.70;;;;;;;1.56;86.52;100155.97;103123;1282;22491;-61
2022/12/21 05:01:33;;;;;;;44.50;16.70;;;;;;;1.56;86.58;100149.13;103005;1301;22585;-58
2022/12/21 05:04:05;;;;;;;40.80;13.90;;;;;;;1.56;86.82;100140.95;103106;1306;25702;-59
2022/12/21 05:06:37;;;;;;;43.90;16.50;;;;;;;1.55;86.75;100139.55;103042;1307;25441;-60
2022/12/21 05:09:08;;;;;;;45.70;18.70;;;;;;;1.56;86.83;100135.14;103010;1284;24404;-60
2022/12/21 05:11:40;;;;;;;45.80;16.90;;;;;;;1.57;87.00;100132.91;103108;1306;25451;-60
2022/12/21 05:14:11;;;;;;;45.40;17.50;;;;;;;1.58;87.01;100133.37;103166;1304;22466;-59
2022/12/21 05:16:42;;;;;;;44.30;16.90;;;;;;;1.59;87.17;100128.89;103197;1283;25356;-59
2022/12/21 05:19:16;;;;;;;46.60;17.60;;;;;;;1.60;87.14;100137.04;103062;1281;22458;-58
2022/12/21 05:21:47;;;;;;;47.80;19.50;;;;;;;1.61;87.25;100133.56;103220;1305;22462;-60
2022/12/21 05:24:19;;;;;;;45.30;17.10;;;;;;;1.62;87.38;100136.76;103110;1281;25386;-59
2022/12/21 05:26:50;;;;;;;43.90;17.80;;;;;;;1.63;87.35;100134.52;103030;1296;22474;-60
2022/12/21 05:29:22;;;;;;;51.40;21.50;;;;;;;1.63;87.28;100132.88;103085;1305;25350;-59
2022/12/21 05:31:54;;;;;;;53.30;22.10;;;;;;;1.62;87.29;100135.42;103022;1306;22555;-59
2022/12/21 05:34:25;;;;;;;51.00;21.50;;;;;;;1.63;87.37;100139.90;103046;1281;24344;-61
2022/12/21 05:36:57;;;;;;;45.10;17.60;;;;;;;1.62;87.38;100137.63;103087;1306;22477;-60
2022/12/21 05:39:29;;;;;;;46.00;16.80;;;;;;;1.60;87.39;100141.30;103204;1281;24414;-69
2022/12/21 05:42:01;;;;;;;46.00;15.10;;;;;;;1.59;87.43;100148.91;102984;1300;23767;-59
2022/12/21 05:44:32;;;;;;;44.70;16.60;;;;;;;1.59;87.57;100141.79;103061;1282;24102;-65
2022/12/21 05:47:04;;;;;;;40.10;16.50;;;;;;;1.59;87.52;100137.85;103087;1282;24337;-60
2022/12/21 05:49:35;;;;;;;56.70;18.40;;;;;;;1.58;87.60;100150.27;103056;1282;22475;-59
2022/12/21 05:52:07;;;;;;;43.10;16.80;;;;;;;1.58;87.59;100157.59;103170;1306;24311;-57
2022/12/21 05:54:38;;;;;;;45.80;16.40;;;;;;;1.58;87.62;100155.94;102985;1307;22525;-59
2022/12/21 05:57:10;;;;;;;43.50;15.60;;;;;;;1.59;87.70;100146.63;103113;1303;22477;-61
2022/12/21 05:59:41;;;;;;;40.50;14.80;;;;;;;1.60;87.56;100149.06;103083;1278;26745;-59
2022/12/21 06:02:12;;;;;;;40.40;15.60;;;;;;;1.59;87.68;100144.27;102964;1284;22457;-59
2022/12/21 06:04:44;;;;;;;42.50;17.10;;;;;;;1.59;87.50;100139.71;102977;1281;22489;-60
2022/12/21 06:07:16;;;;;;;41.50;14.80;;;;;;;1.60;87.56;100146.00;102999;1284;22476;-58
2022/12/21 06:09:47;;;;;;;44.20;15.40;;;;;;;1.62;87.51;100145.88;103202;1307;22480;-60
2022/12/21 06:12:19;;;;;;;38.50;13.30;;;;;;;1.63;87.50;100136.89;103048;1306;25393;-59
2022/12/21 06:14:51;;;;;;;42.40;13.70;;;;;;;1.65;87.44;100138.29;103022;1281;22591;-59
2022/12/21 06:17:22;;;;;;;40.00;14.10;;;;;;;1.66;87.49;100149.97;103089;1282;22488;-57
2022/12/21 06:19:54;;;;;;;35.10;11.80;;;;;;;1.68;87.71;100158.36;103068;1299;22585;-57
2022/12/21 06:22:26;;;;;;;36.90;13.10;;;;;;;1.69;87.64;100154.58;103273;1275;25415;-56
2022/12/21 06:24:57;;;;;;;43.00;14.40;;;;;;;1.69;87.61;100146.46;103187;1305;22476;-58
2022/12/21 06:27:29;;;;;;;41.60;16.20;;;;;;;1.69;87.80;100150.00;103374;1282;24295;-58
2022/12/21 06:30:02;;;;;;;39.60;14.10;;;;;;;1.70;87.83;100151.57;103161;1306;26765;-58
2022/12/21 06:32:33;;;;;;;37.30;13.80;;;;;;;1.71;87.90;100156.73;103025;1275;22583;-57
2022/12/21 06:35:06;;;;;;;40.40;15.50;;;;;;;1.72;87.99;100153.09;106635;1281;22468;-57
2022/12/21 06:37:38;;;;;;;43.20;15.80;;;;;;;1.75;88.16;100153.66;103399;1306;22462;-61
2022/12/21 06:40:11;;;;;;;38.10;14.10;;;;;;;1.76;88.21;100155.76;103112;1284;24259;-58
2022/12/21 06:42:42;;;;;;;35.40;14.30;;;;;;;1.78;88.16;100150.32;104029;1290;24267;-57
2022/12/21 06:45:14;;;;;;;38.20;13.00;;;;;;;1.78;88.10;100155.10;103236;1281;24308;-58
2022/12/21 06:47:45;;;;;;;37.10;12.60;;;;;;;1.80;88.20;100158.36;103022;1282;22478;-61
2022/12/21 06:50:17;;;;;;;35.20;13.30;;;;;;;1.82;88.30;100160.68;103073;1286;22480;-58
2022/12/21 06:52:50;;;;;;;35.80;14.20;;;;;;;1.84;88.25;100156.24;103003;1283;24444;-59
2022/12/21 06:55:24;;;;;;;42.30;13.60;;;;;;;1.87;88.28;100155.17;106683;1282;22542;-59
2022/12/21 06:57:55;;;;;;;38.70;13.50;;;;;;;1.88;88.22;100156.73;103341;1306;22479;-58
2022/12/21 07:00:27;;;;;;;31.70;11.10;;;;;;;1.89;88.28;100157.41;103352;1287;22505;-59
2022/12/21 07:02:58;;;;;;;35.00;12.00;;;;;;;1.91;88.25;100152.65;103033;1310;22485;-60
2022/12/21 07:05:30;;;;;;;37.90;15.10;;;;;;;1.92;88.16;100157.13;103138;1281;24368;-60
2022/12/21 07:08:01;;;;;;;38.00;13.60;;;;;;;1.92;88.18;100160.19;103063;1283;24412;-59
2022/12/21 07:10:32;;;;;;;33.70;12.30;;;;;;;1.93;88.18;100166.62;103211;1281;22494;-60
2022/12/21 07:13:06;;;;;;;37.20;12.60;;;;;;;1.92;88.16;100173.31;103155;1306;22474;-57
2022/12/21 07:15:37;;;;;;;34.90;12.50;;;;;;;1.93;88.14;100171.42;103295;1306;22462;-59
2022/12/21 07:18:09;;;;;;;32.30;12.10;;;;;;;1.94;88.09;100169.49;103081;1275;22508;-59
2022/12/21 07:20:40;;;;;;;38.40;13.20;;;;;;;1.96;88.11;100162.79;103146;1304;22522;-60
2022/12/21 07:23:12;;;;;;;31.50;12.10;;;;;;;1.96;88.22;100156.95;103066;1301;25470;-60
2022/12/21 07:25:44;;;;;;;34.00;13.60;;;;;;;1.97;88.24;100156.46;103008;1305;25514;-58
2022/12/21 07:28:15;;;;;;;30.60;10.20;;;;;;;1.98;88.24;100156.91;103384;1282;25280;-59
2022/12/21 07:30:48;;;;;;;37.90;13.30;;;;;;;1.99;88.26;100152.27;103133;1305;22489;-61
2022/12/21 07:33:20;;;;;;;37.80;13.70;;;;;;;2.00;88.33;100153.81;103145;1282;24478;-61
2022/12/21 07:35:57;;;;;;;32.40;12.50;;;;;;;2.00;88.38;100148.61;103502;1288;22473;-61
2022/12/21 07:38:29;;;;;;;40.30;14.50;;;;;;;2.03;88.39;100148.42;103102;1288;24452;-61
2022/12/21 07:41:04;;;;;;;33.10;11.70;;;;;;;2.04;88.22;100141.86;103165;1282;24427;-57
2022/12/21 07:43:36;;;;;;;35.50;10.30;;;;;;;2.05;88.19;100138.29;103116;1282;22648;-59
2022/12/21 07:46:08;;;;;;;32.60;11.60;;;;;;;2.07;88.18;100134.48;103225;1291;23676;-60
2022/12/21 07:48:40;;;;;;;30.40;10.60;;;;;;;2.09;88.14;100135.69;103017;1306;22470;-58
2022/12/21 07:51:11;;;;;;;37.20;13.20;;;;;;;2.12;88.17;100136.11;102986;1281;22486;-58
2022/12/21 07:53:43;;;;;;;36.10;13.00;;;;;;;2.14;88.20;100144.34;103062;1306;22468;-60
2022/12/21 07:56:19;;;;;;;37.50;13.10;;;;;;;2.17;88.19;100148.75;102980;1284;22580;-59
2022/12/21 07:58:50;;;;;;;35.00;12.40;;;;;;;2.20;88.22;100149.55;103088;1305;22516;-58
2022/12/21 08:01:26;;;;;;;36.80;13.50;;;;;;;2.23;88.11;100150.20;103125;1302;22459;-59
2022/12/21 08:04:01;;;;;;;32.00;11.60;;;;;;;2.26;88.12;100144.63;103303;1310;22468;-59
2022/12/21 08:06:33;;;;;;;38.90;14.20;;;;;;;2.29;87.97;100141.10;103262;1306;22839;-59
2022/12/21 08:09:06;;;;;;;34.00;12.00;;;;;;;2.31;87.90;100139.96;103058;1289;24452;-60
2022/12/21 08:11:37;;;;;;;38.60;13.50;;;;;;;2.34;87.83;100145.33;103079;1305;22485;-60
2022/12/21 08:14:09;;;;;;;39.90;13.40;;;;;;;2.34;87.67;100142.26;103044;1309;25352;-60
2022/12/21 08:16:41;;;;;;;35.40;13.90;;;;;;;2.36;87.72;100151.33;103321;1310;22478;-59
2022/12/21 08:19:12;;;;;;;36.30;13.50;;;;;;;2.39;87.81;100157.34;103061;1288;23086;-60
2022/12/21 08:21:44;;;;;;;34.50;12.80;;;;;;;2.42;87.82;100154.06;103085;1308;24447;-60
2022/12/21 08:24:15;;;;;;;36.60;12.60;;;;;;;2.44;87.63;100148.35;103019;1288;25351;-59
2022/12/21 08:26:47;;;;;;;43.40;15.40;;;;;;;2.45;87.42;100149.75;103019;1285;22470;-62
2022/12/21 08:29:18;;;;;;;38.30;14.90;;;;;;;2.47;87.50;100151.91;103044;1304;23743;-59
2022/12/21 08:31:49;;;;;;;40.80;14.30;;;;;;;2.49;87.38;100168.95;103086;1312;25904;-59
2022/12/21 08:34:21;;;;;;;37.30;13.70;;;;;;;2.51;87.27;100163.23;103055;1302;22585;-60
2022/12/21 08:36:53;;;;;;;33.30;12.60;;;;;;;2.53;87.37;100169.17;103088;1304;25347;-60
2022/12/21 08:39:27;;;;;;;37.00;13.50;;;;;;;2.54;87.26;100166.32;102940;1283;25310;-63
2022/12/21 08:41:59;;;;;;;38.70;13.70;;;;;;;2.55;87.16;100165.76;103158;1303;22465;-61
2022/12/21 08:44:30;;;;;;;36.60;13.80;;;;;;;2.55;87.09;100163.31;102989;1287;22489;-60
2022/12/21 08:47:02;;;;;;;35.60;13.00;;;;;;;2.57;87.26;100162.32;103091;1283;22529;-60
2022/12/21 08:49:33;;;;;;;33.70;13.30;;;;;;;2.58;87.01;100164.10;102999;1308;22600;-60
2022/12/21 08:52:05;;;;;;;34.60;12.40;;;;;;;2.61;87.01;100157.11;103083;1310;25376;-60
2022/12/21 08:54:36;;;;;;;45.40;16.60;;;;;;;2.63;87.08;100154.15;103069;1281;22472;-59
2022/12/21 08:57:08;;;;;;;35.80;13.70;;;;;;;2.65;86.83;100158.76;103008;1281;22441;-60
2022/12/21 08:59:39;;;;;;;39.40;13.70;;;;;;;2.67;86.76;100161.63;103096;1306;25370;-60
2022/12/21 09:02:15;;;;;;;42.20;15.50;;;;;;;2.70;86.70;100159.67;103025;1281;22702;-59
2022/12/21 09:04:46;;;;;;;35.70;13.80;;;;;;;2.72;86.88;100160.81;103037;1278;22488;-60
2022/12/21 09:07:19;;;;;;;35.90;13.20;;;;;;;2.75;86.90;100151.13;103137;1309;26620;-61
2022/12/21 09:09:51;;;;;;;38.80;15.00;;;;;;;2.75;86.57;100137.34;103383;1278;22594;-59
2022/12/21 09:12:23;;;;;;;35.90;13.20;;;;;;;2.76;86.47;100139.29;103149;1291;22926;-59
2022/12/21 09:14:54;;;;;;;33.50;12.10;;;;;;;2.78;86.72;100128.13;103470;1282;22529;-59
2022/12/21 09:17:26;;;;;;;35.70;12.90;;;;;;;2.79;86.44;100131.89;103338;1299;22474;-60
2022/12/21 09:19:58;;;;;;;33.20;12.40;;;;;;;2.81;86.51;100142.33;103353;1305;22555;-60
2022/12/21 09:22:29;;;;;;;34.10;11.80;;;;;;;2.83;86.57;100128.89;103506;1282;22467;-61
2022/12/21 09:25:02;;;;;;;36.90;13.30;;;;;;;2.86;86.48;100129.91;103430;1309;22505;-61
2022/12/21 09:27:33;;;;;;;44.20;15.00;;;;;;;2.89;86.53;100128.98;103221;1297;24412;-61
2022/12/21 09:30:06;;;;;;;35.60;13.20;;;;;;;2.93;86.56;100129.77;103582;1288;22520;-61
2022/12/21 09:32:38;;;;;;;40.90;14.50;;;;;;;2.94;86.42;100119.56;103347;1288;23388;-60
2022/12/21 09:35:10;;;;;;;38.10;13.60;;;;;;;2.97;86.32;100130.52;103421;1310;22515;-59
2022/12/21 09:37:42;;;;;;;36.30;13.10;;;;;;;3.00;86.28;100128.25;103449;1282;25551;-60
2022/12/21 09:40:18;;;;;;;36.20;13.70;;;;;;;3.04;86.41;100125.57;103410;1306;22670;-59
2022/12/21 09:43:02;;;;;;;37.20;13.10;;;;;;;3.07;86.73;100117.83;103416;1307;25385;-61
2022/12/21 09:45:47;;;;;;;40.50;14.30;;;;;;;3.11;86.39;100117.02;103502;1290;22466;-60
2022/12/21 09:48:21;;;;;;;40.40;14.80;;;;;;;3.12;86.22;100114.58;103508;1282;24259;-59
2022/12/21 09:50:56;;;;;;;36.40;13.50;;;;;;;3.12;86.20;100113.84;103448;1281;22488;-59
2022/12/21 09:53:34;;;;;;;39.20;15.50;;;;;;;3.13;86.34;100110.12;103336;1281;25428;-61
2022/12/21 09:56:08;;;;;;;36.80;13.80;;;;;;;3.15;86.31;100106.52;103645;1290;22486;-60
2022/12/21 09:58:42;;;;;;;37.20;15.30;;;;;;;3.15;85.96;100102.19;103370;1288;26580;-59
2022/12/21 10:01:22;;;;;;;41.60;16.20;;;;;;;3.15;86.05;100102.65;103362;1281;22741;-60
2022/12/21 10:04:34;;;;;;;41.30;18.00;;;;;;;3.17;86.01;100102.45;103682;1283;25228;-61
2022/12/21 10:07:24;;;;;;;39.90;14.90;;;;;;;3.21;86.31;100098.65;105505;1281;22570;-59
2022/12/21 10:10:08;;;;;;;37.60;15.50;;;;;;;3.22;86.06;100093.10;103077;1288;24409;-57
2022/12/21 10:12:49;;;;;;;42.80;15.50;;;;;;;3.24;86.12;100101.95;103449;1283;22498;-60
2022/12/21 10:15:31;;;;;;;49.50;20.60;;;;;;;3.27;86.22;100104.70;103268;1284;22470;-60
2022/12/21 10:18:13;;;;;;;52.40;22.50;;;;;;;3.28;86.07;100107.77;103290;1283;22435;-61
2022/12/21 10:20:54;;;;;;;52.30;20.20;;;;;;;3.30;86.20;100106.15;103261;1306;22472;-62
2022/12/21 10:23:28;;;;;;;53.80;20.00;;;;;;;3.31;86.15;100107.30;103079;1282;25307;-61
2022/12/21 10:26:02;;;;;;;59.00;19.20;;;;;;;3.31;86.14;100114.39;103271;1282;22479;-60
2022/12/21 10:28:45;;;;;;;58.60;20.30;;;;;;;3.31;86.10;100107.77;103139;1298;22483;-60
2022/12/21 10:31:21;;;;;;;51.50;18.50;;;;;;;3.32;86.20;100102.08;103308;1283;22462;-61
2022/12/21 10:33:55;;;;;;;45.80;16.90;;;;;;;3.33;86.36;100097.09;103274;1306;22475;-60
2022/12/21 10:36:37;;;;;;;47.40;17.10;;;;;;;3.34;86.43;100087.75;103314;1275;22443;-60
2022/12/21 10:39:13;;;;;;;50.40;17.80;;;;;;;3.35;86.48;100080.23;103293;1283;25414;-62
2022/12/21 10:41:47;;;;;;;54.00;20.10;;;;;;;3.37;86.53;100095.34;103153;1282;22466;-60
2022/12/21 10:44:18;;;;;;;42.60;17.80;;;;;;;3.39;86.76;100098.35;102994;1282;24337;-62
2022/12/21 10:46:50;;;;;;;46.90;16.80;;;;;;;3.40;86.88;100104.15;103245;1282;25403;-61
2022/12/21 10:49:28;;;;;;;44.40;16.90;;;;;;;3.40;87.06;100096.35;103115;1306;22499;-60
2022/12/21 10:51:59;;;;;;;37.10;14.50;;;;;;;3.40;87.16;100090.98;103341;1306;24504;-62
2022/12/21 10:54:32;;;;;;;37.90;14.40;;;;;;;3.41;87.41;100089.06;103336;1306;22467;-62
2022/12/21 10:57:04;;;;;;;44.80;17.00;;;;;;;3.43;87.65;100088.23;103057;1306;22581;-60
2022/12/21 10:59:42;;;;;;;48.40;21.10;;;;;;;3.44;87.76;100091.75;103203;1281;25298;-62
2022/12/21 11:02:35;;;;;;;51.60;22.70;;;;;;;3.43;87.82;100092.95;103016;1282;25319;-61
2022/12/21 11:05:27;;;;;;;50.00;20.70;;;;;;;3.42;87.83;100092.42;103062;1282;22603;-60
2022/12/21 11:08:16;;;;;;;44.00;18.30;;;;;;;3.38;87.90;100093.09;103102;1282;24386;-61
2022/12/21 11:10:49;;;;;;;45.10;18.30;;;;;;;3.34;87.93;100094.15;102941;1305;22495;-63
2022/12/21 11:13:22;;;;;;;42.60;17.70;;;;;;;3.31;88.09;100093.58;103126;1282;22477;-60
2022/12/21 11:16:04;;;;;;;44.70;18.50;;;;;;;3.29;88.18;100088.25;103149;1298;24438;-61
2022/12/21 11:18:42;;;;;;;46.80;19.80;;;;;;;3.28;88.38;100080.80;103309;1292;22545;-61
2022/12/21 11:21:27;;;;;;;45.70;18.20;;;;;;;3.26;88.50;100083.84;103510;1282;24180;-59
2022/12/21 11:24:04;;;;;;;45.70;16.60;;;;;;;3.24;88.63;100078.08;103352;1281;22478;-59
2022/12/21 11:26:41;;;;;;;47.70;19.00;;;;;;;3.20;88.78;100071.23;103564;1305;22459;-60
2022/12/21 11:29:24;;;;;;;50.30;21.20;;;;;;;3.20;88.86;100068.10;103670;1275;22432;-60
2022/12/21 11:31:57;;;;;;;42.00;18.40;;;;;;;3.20;88.96;100062.11;103406;1292;22480;-60
2022/12/21 11:34:36;;;;;;;47.50;20.00;;;;;;;3.19;89.05;100072.53;103391;1303;22902;-59
2022/12/21 11:37:24;;;;;;;64.00;27.00;;;;;;;3.17;89.21;100073.36;103456;1282;22489;-59
2022/12/21 11:39:59;;;;;;;68.90;27.70;;;;;;;3.17;89.29;100073.44;103459;1281;22451;-58
2022/12/21 11:42:31;;;;;;;56.30;23.50;;;;;;;3.17;89.37;100070.46;103298;1281;22585;-59
2022/12/21 11:45:22;;;;;;;48.10;20.30;;;;;;;3.17;89.43;100067.07;103474;1281;22483;-60
2022/12/21 11:48:09;;;;;;;54.40;20.20;;;;;;;3.19;89.50;100070.33;103529;1306;22614;-60
2022/12/21 11:50:56;;;;;;;47.50;19.70;;;;;;;3.19;89.48;100076.70;103439;1305;22465;-59
2022/12/21 11:53:59;;;;;;;45.40;19.30;;;;;;;3.18;89.53;100067.19;103223;1306;22585;-61
2022/12/21 11:56:36;;;;;;;47.80;20.80;;;;;;;3.19;89.43;100066.31;103458;1298;22461;-60
2022/12/21 11:59:37;;;;;;;52.20;22.40;;;;;;;3.20;89.51;100071.64;103208;1282;24323;-67